createdAt,value
2022-08-01T00:00:57.492Z,8.10
2022-08-01T00:03:25.477Z,5.18
2022-08-01T00:05:53.442Z,8.40
2022-08-01T00:08:21.430Z,7.82
2022-08-01T00:10:50.782Z,5.85
2022-08-01T00:13:18.914Z,5.65
2022-08-01T00:15:54.170Z,5.93
2022-08-01T00:18:22.843Z,7.20
2022-08-01T00:20:50.892Z,5.32
2022-08-01T00:23:18.888Z,6.20
2022-08-01T00:25:47.035Z,7.00
2022-08-01T00:28:17.357Z,5.78
2022-08-01T00:30:45.324Z,8.07
2022-08-01T00:33:13.366Z,5.50
2022-08-01T00:35:41.273Z,3.83
2022-08-01T00:38:09.323Z,2.42
2022-08-01T00:40:37.381Z,3.75
2022-08-01T00:43:05.482Z,3.58
2022-08-01T00:45:34.840Z,1.27
2022-08-01T00:48:02.837Z,1.88
2022-08-01T00:50:30.778Z,3.35
2022-08-01T00:53:00.453Z,2.05
2022-08-01T00:55:29.508Z,1.80
2022-08-01T00:58:02.654Z,3.08
2022-08-01T01:00:53.097Z,2.75
2022-08-01T01:03:33.419Z,2.83
2022-08-01T01:06:24.294Z,3.00
2022-08-01T01:09:04.329Z,2.70
2022-08-01T01:11:41.786Z,3.40
2022-08-01T01:14:15.411Z,2.15
2022-08-01T01:16:46.661Z,2.45
2022-08-01T01:19:22.331Z,1.95
2022-08-01T01:22:11.371Z,2.60
2022-08-01T01:24:47.105Z,3.72
2022-08-01T01:27:23.312Z,4.05
2022-08-01T01:29:58.716Z,4.50
2022-08-01T01:32:34.892Z,3.53
2022-08-01T01:35:07.367Z,3.28
2022-08-01T01:37:36.230Z,2.70
2022-08-01T01:40:07.627Z,2.95
2022-08-01T01:42:36.495Z,5.18
2022-08-01T01:45:08.646Z,2.67
2022-08-01T01:47:38.644Z,3.58
2022-08-01T01:50:09.006Z,6.28
2022-08-01T01:52:39.233Z,3.08
2022-08-01T01:55:09.945Z,3.80
2022-08-01T01:57:42.321Z,4.28
2022-08-01T02:00:13.888Z,2.72
2022-08-01T02:02:44.071Z,3.33
2022-08-01T02:05:13.472Z,4.50
2022-08-01T02:07:43.641Z,2.00
2022-08-01T02:10:13.989Z,4.35
2022-08-01T02:12:46.498Z,3.80
2022-08-01T02:15:17.530Z,2.20
2022-08-01T02:17:49.595Z,3.38
2022-08-01T02:20:18.353Z,3.00
2022-08-01T02:22:52.180Z,3.80
2022-08-01T02:25:24.756Z,2.35
2022-08-01T02:27:59.007Z,1.65
2022-08-01T02:30:32.540Z,2.17
2022-08-01T02:33:04.481Z,1.52
2022-08-01T02:35:36.053Z,1.10
2022-08-01T02:38:28.321Z,4.60
2022-08-01T02:40:59.981Z,2.03
2022-08-01T02:43:32.453Z,1.35
2022-08-01T02:46:04.641Z,1.00
2022-08-01T02:48:37.039Z,1.38
2022-08-01T02:51:07.254Z,2.58
2022-08-01T02:53:44.614Z,2.08
2022-08-01T02:56:14.707Z,1.25
2022-08-01T02:58:44.719Z,1.10
2022-08-01T03:01:17.066Z,1.77
2022-08-01T03:03:47.722Z,1.13
2022-08-01T03:06:16.562Z,2.83
2022-08-01T03:08:46.126Z,1.10
2022-08-01T03:11:15.548Z,1.58
2022-08-01T03:13:46.824Z,1.88
2022-08-01T03:16:18.200Z,3.10
2022-08-01T03:18:47.792Z,2.53
2022-08-01T03:21:16.224Z,1.98
2022-08-01T03:23:48.216Z,1.20
2022-08-01T03:26:18.339Z,1.40
2022-08-01T03:28:48.165Z,1.98
2022-08-01T03:31:19.016Z,1.52
2022-08-01T03:33:47.090Z,1.58
2022-08-01T03:36:17.509Z,2.22
2022-08-01T03:38:47.498Z,2.55
2022-08-01T03:41:21.959Z,1.00
2022-08-01T03:43:55.250Z,2.72
2022-08-01T03:46:35.089Z,2.40
2022-08-01T03:49:07.966Z,2.90
2022-08-01T03:51:36.334Z,2.22
2022-08-01T03:54:06.116Z,2.28
2022-08-01T03:56:35.186Z,3.30
2022-08-01T03:59:04.986Z,3.10
2022-08-01T04:01:35.649Z,2.38
2022-08-01T04:04:06.068Z,2.05
2022-08-01T04:06:34.083Z,2.47
2022-08-01T04:09:02.256Z,2.60
2022-08-01T04:11:30.327Z,3.53
2022-08-01T04:13:58.489Z,1.98
2022-08-01T04:16:27.573Z,3.17
2022-08-01T04:18:56.975Z,2.72
2022-08-01T04:21:29.598Z,2.60
2022-08-01T04:24:02.174Z,2.85
2022-08-01T04:26:32.935Z,4.70
2022-08-01T04:29:03.727Z,2.95
2022-08-01T04:31:33.533Z,1.50
2022-08-01T04:34:06.504Z,1.48
2022-08-01T04:36:37.111Z,1.70
2022-08-01T04:39:07.758Z,1.98
2022-08-01T04:41:37.224Z,1.17
2022-08-01T04:44:05.960Z,2.30
2022-08-01T04:46:35.613Z,2.30
2022-08-01T04:49:08.035Z,3.47
2022-08-01T04:51:36.393Z,1.90
2022-08-01T04:54:04.960Z,4.28
2022-08-01T04:56:35.077Z,2.75
2022-08-01T04:59:20.462Z,2.05
2022-08-01T05:01:51.528Z,5.60
2022-08-01T05:04:21.025Z,3.15
2022-08-01T05:06:48.945Z,3.83
2022-08-01T05:09:17.049Z,1.65
2022-08-01T05:11:45.206Z,1.70
2022-08-01T05:14:13.130Z,3.00
2022-08-01T05:16:41.074Z,2.00
2022-08-01T05:19:10.141Z,1.40
2022-08-01T05:21:39.867Z,3.45
2022-08-01T05:24:08.438Z,1.80
2022-08-01T05:26:36.933Z,1.45
2022-08-01T05:29:05.324Z,1.75
2022-08-01T05:31:35.312Z,2.20
2022-08-01T05:34:06.067Z,2.67
2022-08-01T05:36:44.439Z,2.70
2022-08-01T05:39:12.572Z,3.33
2022-08-01T05:41:41.189Z,3.00
2022-08-01T05:44:09.969Z,2.80
2022-08-01T05:46:38.644Z,2.03
2022-08-01T05:49:07.510Z,3.75
2022-08-01T05:51:35.653Z,4.57
2022-08-01T05:54:05.178Z,3.22
2022-08-01T05:56:33.120Z,3.83
2022-08-01T05:59:01.063Z,8.93
2022-08-01T06:01:29.097Z,7.50
2022-08-01T06:03:57.127Z,2.72
2022-08-01T06:06:25.476Z,2.95
2022-08-01T06:08:54.014Z,3.60
2022-08-01T06:11:23.451Z,4.13
2022-08-01T06:13:51.430Z,1.95
2022-08-01T06:16:19.416Z,2.25
2022-08-01T06:18:47.437Z,2.03
2022-08-01T06:21:15.486Z,3.17
2022-08-01T06:23:43.548Z,2.97
2022-08-01T06:26:12.044Z,4.38
2022-08-01T06:28:41.682Z,2.72
2022-08-01T06:31:11.214Z,2.75
2022-08-01T06:33:39.173Z,3.67
2022-08-01T06:36:07.312Z,3.83
2022-08-01T06:38:35.672Z,3.22
2022-08-01T06:41:03.652Z,4.20
2022-08-01T06:43:32.289Z,3.22
2022-08-01T06:46:01.804Z,5.15
2022-08-01T06:48:29.912Z,4.55
2022-08-01T06:51:09.657Z,9.45
2022-08-01T06:53:39.071Z,9.27
2022-08-01T06:56:09.556Z,10.27
2022-08-01T06:58:37.777Z,5.88
2022-08-01T07:01:08.279Z,8.57
2022-08-01T07:03:53.385Z,7.63
2022-08-01T07:06:23.892Z,7.63
2022-08-01T07:08:52.000Z,14.52
2022-08-01T07:11:20.438Z,10.30
2022-08-01T07:13:48.470Z,16.02
2022-08-01T07:16:18.699Z,10.13
2022-08-01T07:18:46.856Z,11.57
2022-08-01T07:21:38.301Z,8.52
2022-08-01T07:24:02.869Z,10.75
2022-08-01T07:26:52.621Z,12.82
2022-08-01T07:29:23.167Z,11.45
2022-08-01T07:31:52.680Z,11.80
2022-08-01T07:34:20.775Z,8.52
2022-08-01T07:36:49.129Z,13.57
2022-08-01T07:39:17.126Z,13.48
2022-08-01T07:41:52.653Z,7.78
2022-08-01T07:44:33.236Z,15.75
2022-08-01T07:47:02.557Z,14.70
2022-08-01T07:49:31.595Z,15.10
2022-08-01T07:52:03.172Z,11.65
2022-08-01T07:54:33.927Z,13.95
2022-08-01T07:57:02.700Z,11.70
2022-08-01T07:59:30.687Z,15.60
2022-08-01T08:01:58.851Z,12.20
2022-08-01T08:04:28.327Z,10.60
2022-08-01T08:06:56.309Z,7.30
2022-08-01T08:09:24.878Z,6.28
2022-08-01T08:11:52.869Z,8.55
2022-08-01T08:14:25.704Z,5.05
2022-08-01T08:17:02.289Z,8.88
2022-08-01T08:19:37.570Z,7.60
2022-08-01T08:22:07.511Z,6.45
2022-08-01T08:24:35.783Z,6.32
2022-08-01T08:27:04.537Z,4.63
2022-08-01T08:29:33.771Z,7.70
2022-08-01T08:32:02.504Z,5.80
2022-08-01T08:34:31.982Z,6.07
2022-08-01T08:37:00.732Z,7.35
2022-08-01T08:39:30.566Z,5.78
2022-08-01T08:42:01.054Z,7.57
2022-08-01T08:44:29.059Z,6.93
2022-08-01T08:46:59.741Z,6.45
2022-08-01T08:49:35.865Z,4.63
2022-08-01T08:52:09.115Z,4.57
2022-08-01T08:54:38.958Z,3.28
2022-08-01T08:57:07.930Z,4.13
2022-08-01T08:59:35.995Z,6.60
2022-08-01T09:02:07.956Z,4.78
2022-08-01T09:04:37.355Z,10.27
2022-08-01T09:07:09.045Z,6.53
2022-08-01T09:09:41.638Z,6.95
2022-08-01T09:12:10.867Z,6.85
2022-08-01T09:14:47.678Z,6.20
2022-08-01T09:17:17.347Z,2.97
2022-08-01T09:19:48.817Z,5.90
2022-08-01T09:22:22.205Z,5.63
2022-08-01T09:25:03.816Z,5.30
2022-08-01T09:27:32.483Z,6.28
2022-08-01T09:30:11.806Z,3.67
2022-08-01T09:32:58.776Z,6.25
2022-08-01T09:35:30.033Z,5.35
2022-08-01T09:40:58.848Z,5.18
2022-08-01T09:43:28.343Z,4.95
2022-08-01T09:45:57.929Z,6.53
2022-08-01T09:48:29.474Z,4.65
2022-08-01T09:51:04.150Z,8.55
2022-08-01T09:53:51.306Z,6.30
2022-08-01T09:56:23.539Z,6.65
2022-08-01T09:58:58.969Z,6.53
2022-08-01T10:01:36.261Z,6.55
2022-08-01T10:04:13.722Z,5.28
2022-08-01T10:06:45.072Z,8.48
2022-08-01T10:09:16.212Z,12.80
2022-08-01T10:11:45.950Z,12.10
2022-08-01T10:14:17.728Z,12.23
2022-08-01T10:16:53.792Z,6.38
2022-08-01T10:19:28.895Z,6.80
2022-08-01T10:21:59.387Z,11.93
2022-08-01T10:24:30.427Z,10.55
2022-08-01T10:27:08.137Z,7.88
2022-08-01T10:29:59.235Z,12.70
2022-08-01T10:32:29.990Z,6.72
2022-08-01T10:34:58.724Z,8.30
2022-08-01T10:37:27.339Z,9.38
2022-08-01T10:40:14.018Z,8.32
2022-08-01T10:42:45.213Z,9.98
2022-08-01T10:45:16.157Z,9.27
2022-08-01T10:47:50.151Z,7.13
2022-08-01T10:50:26.841Z,4.43
2022-08-01T10:53:16.592Z,7.45
2022-08-01T10:55:55.216Z,6.78
2022-08-01T10:58:30.953Z,6.68
2022-08-01T11:01:25.542Z,6.40
2022-08-01T11:04:13.927Z,5.10
2022-08-01T11:06:53.379Z,5.28
2022-08-01T11:09:36.378Z,6.03
2022-08-01T11:12:13.393Z,5.18
2022-08-01T11:15:29.779Z,6.53
2022-08-01T11:18:02.180Z,5.57
2022-08-01T11:20:39.553Z,5.95
2022-08-01T11:23:21.772Z,8.65
2022-08-01T11:26:10.848Z,9.60
2022-08-01T11:28:47.051Z,6.75
2022-08-01T11:31:37.695Z,7.60
2022-08-01T11:34:07.736Z,7.22
2022-08-01T11:36:58.346Z,6.82
2022-08-01T11:39:24.552Z,6.97
2022-08-01T11:41:56.078Z,5.25
2022-08-01T11:44:31.281Z,8.57
2022-08-01T11:47:09.713Z,11.02
2022-08-01T11:49:55.866Z,10.68
2022-08-01T11:52:29.433Z,6.30
2022-08-01T11:54:59.050Z,8.90
2022-08-01T11:57:34.309Z,11.13
2022-08-01T12:00:08.392Z,8.27
2022-08-01T12:02:37.346Z,6.35
2022-08-01T12:05:12.169Z,5.40
2022-08-01T12:07:42.057Z,5.50
2022-08-01T12:10:12.956Z,14.52
2022-08-01T12:12:45.653Z,7.57
2022-08-01T12:15:14.393Z,5.18
2022-08-01T12:17:45.881Z,8.93
2022-08-01T12:20:30.442Z,7.30
2022-08-01T12:23:00.128Z,4.82
2022-08-01T12:25:28.108Z,25.80
2022-08-01T12:27:57.861Z,14.98
2022-08-01T12:30:27.827Z,16.00
2022-08-01T12:32:56.945Z,5.72
2022-08-01T12:35:28.144Z,10.70
2022-08-01T12:37:58.459Z,8.63
2022-08-01T12:40:28.907Z,5.85
2022-08-01T12:42:59.192Z,8.32
2022-08-01T12:45:29.741Z,5.05
2022-08-01T12:48:00.506Z,6.50
2022-08-01T12:50:31.721Z,4.55
2022-08-01T12:53:00.439Z,4.55
2022-08-01T12:55:34.278Z,8.00
2022-08-01T12:58:10.403Z,6.50
2022-08-01T13:00:45.626Z,7.13
2022-08-01T13:03:15.989Z,9.18
2022-08-01T13:05:50.181Z,11.95
2022-08-01T13:08:19.756Z,5.95
2022-08-01T13:10:48.357Z,9.50
2022-08-01T13:13:27.758Z,8.98
2022-08-01T13:16:06.623Z,5.25
2022-08-01T13:18:37.919Z,7.05
2022-08-01T13:21:16.345Z,8.20
2022-08-01T13:24:03.140Z,7.82
2022-08-01T13:26:46.095Z,7.90
2022-08-01T13:29:15.817Z,3.92
2022-08-01T13:31:44.547Z,5.53
2022-08-01T13:34:13.080Z,6.70
2022-08-01T13:36:48.776Z,5.57
2022-08-01T13:39:35.948Z,8.27
2022-08-01T13:42:04.358Z,7.90
2022-08-01T13:44:32.704Z,3.15
2022-08-01T13:47:02.049Z,4.05
2022-08-01T13:49:41.031Z,5.88
2022-08-01T13:52:11.075Z,2.97
2022-08-01T13:54:39.155Z,7.68
2022-08-01T13:57:07.290Z,3.63
2022-08-01T13:59:35.282Z,6.35
2022-08-01T14:02:04.159Z,6.13
2022-08-01T14:04:32.344Z,3.13
2022-08-01T14:07:04.162Z,3.72
2022-08-01T14:09:37.414Z,6.15
2022-08-01T14:12:25.448Z,4.82
2022-08-01T14:14:53.727Z,7.07
2022-08-01T14:17:22.309Z,6.72
2022-08-01T14:19:50.885Z,3.40
2022-08-01T14:22:19.351Z,3.38
2022-08-01T14:24:50.233Z,4.90
2022-08-01T14:27:18.294Z,4.50
2022-08-01T14:30:01.083Z,4.72
2022-08-01T14:32:31.495Z,4.63
2022-08-01T14:34:59.632Z,4.93
2022-08-01T14:37:29.256Z,2.88
2022-08-01T14:40:01.464Z,5.07
2022-08-01T14:42:29.571Z,4.53
2022-08-01T14:44:57.542Z,9.80
2022-08-01T14:47:26.075Z,6.05
2022-08-01T14:49:54.233Z,3.88
2022-08-01T14:52:22.517Z,3.40
2022-08-01T14:54:50.661Z,4.50
2022-08-01T14:57:20.136Z,2.60
2022-08-01T14:59:48.406Z,3.40
2022-08-01T15:02:18.311Z,3.85
2022-08-01T15:04:46.920Z,6.00
2022-08-01T15:07:15.554Z,7.50
2022-08-01T15:09:44.462Z,4.20
2022-08-01T15:12:13.266Z,5.18
2022-08-01T15:14:51.598Z,4.63
2022-08-01T15:17:21.694Z,2.20
2022-08-01T15:19:52.072Z,2.70
2022-08-01T15:22:20.243Z,4.90
2022-08-01T15:24:48.317Z,3.95
2022-08-01T15:27:16.629Z,5.07
2022-08-01T15:29:47.743Z,5.05
2022-08-01T15:32:16.173Z,3.20
2022-08-01T15:34:46.339Z,4.85
2022-08-01T15:37:15.643Z,5.13
2022-08-01T15:39:43.803Z,5.13
2022-08-01T15:42:13.715Z,6.32
2022-08-01T15:44:49.793Z,4.68
2022-08-01T15:47:17.978Z,4.07
2022-08-01T15:49:46.119Z,2.60
2022-08-01T15:52:21.519Z,2.15
2022-08-01T15:54:50.972Z,2.65
2022-08-01T15:57:19.107Z,5.38
2022-08-01T15:59:49.744Z,2.30
2022-08-01T16:02:19.174Z,5.50
2022-08-01T16:05:08.298Z,5.28
2022-08-01T16:07:36.527Z,4.97
2022-08-01T16:10:24.602Z,1.95
2022-08-01T16:12:52.590Z,4.97
2022-08-01T16:15:20.650Z,4.63
2022-08-01T16:17:50.015Z,2.42
2022-08-01T16:20:18.013Z,4.65
2022-08-01T16:22:46.840Z,4.93
2022-08-01T16:25:15.536Z,2.30
2022-08-01T16:27:43.610Z,4.05
2022-08-01T16:30:12.565Z,2.55
2022-08-01T16:32:45.132Z,2.78
2022-08-01T16:35:18.742Z,3.60
2022-08-01T16:37:46.859Z,2.47
2022-08-01T16:40:14.912Z,3.78
2022-08-01T16:42:43.093Z,3.13
2022-08-01T16:45:13.738Z,2.65
2022-08-01T16:47:42.570Z,3.85
2022-08-01T16:50:10.660Z,4.20
2022-08-01T16:52:42.175Z,6.22
2022-08-01T16:55:11.787Z,2.95
2022-08-01T16:57:39.880Z,5.38
2022-08-01T17:00:09.687Z,6.03
2022-08-01T17:02:40.619Z,4.43
2022-08-01T17:05:12.758Z,4.32
2022-08-01T17:07:42.373Z,3.88
2022-08-01T17:10:11.714Z,4.97
2022-08-01T17:12:40.378Z,1.40
2022-08-01T17:15:09.531Z,2.53
2022-08-01T17:17:37.594Z,1.98
2022-08-01T17:20:06.491Z,3.17
2022-08-01T17:22:34.469Z,3.17
2022-08-01T17:25:04.168Z,3.50
2022-08-01T17:27:32.165Z,1.88
2022-08-01T17:30:00.178Z,2.05
2022-08-01T17:32:28.432Z,3.78
2022-08-01T17:34:56.610Z,5.57
2022-08-01T17:37:25.601Z,2.88
2022-08-01T17:39:53.691Z,4.72
2022-08-01T17:42:25.205Z,4.32
2022-08-01T17:44:54.253Z,2.50
2022-08-01T17:47:48.485Z,1.35
2022-08-01T17:50:14.012Z,2.13
2022-08-01T17:52:42.061Z,1.00
2022-08-01T17:55:53.503Z,1.70
2022-08-01T17:58:00.505Z,5.28
2022-08-01T18:00:28.534Z,3.30
2022-08-01T18:02:57.706Z,5.50
2022-08-01T18:05:37.269Z,1.25
2022-08-01T18:08:06.590Z,3.60
2022-08-01T18:10:34.698Z,3.63
2022-08-01T18:13:09.477Z,2.08
2022-08-01T18:15:38.628Z,2.75
2022-08-01T18:18:07.491Z,1.75
2022-08-01T18:20:36.936Z,3.45
2022-08-01T18:23:08.695Z,1.70
2022-08-01T18:25:37.058Z,3.80
2022-08-01T18:28:18.983Z,2.70
2022-08-01T18:30:55.798Z,3.22
2022-08-01T18:33:24.232Z,2.85
2022-08-01T18:35:53.982Z,1.90
2022-08-01T18:38:24.146Z,4.00
2022-08-01T18:40:52.558Z,3.22
2022-08-01T18:43:20.811Z,2.70
2022-08-01T18:45:49.493Z,2.67
2022-08-01T18:48:19.309Z,2.47
2022-08-01T18:50:47.510Z,2.42
2022-08-01T18:53:15.767Z,1.48
2022-08-01T18:55:43.815Z,1.88
2022-08-01T18:58:12.268Z,1.65
2022-08-01T19:00:40.903Z,4.20
2022-08-01T19:03:09.821Z,3.28
2022-08-01T19:05:40.064Z,4.95
2022-08-01T19:08:08.432Z,2.50
2022-08-01T19:10:37.253Z,2.78
2022-08-01T19:13:07.774Z,1.48
2022-08-01T19:15:35.964Z,4.22
2022-08-01T19:18:04.642Z,4.47
2022-08-01T19:20:33.024Z,2.25
2022-08-01T19:23:22.711Z,2.42
2022-08-01T19:25:58.203Z,1.85
2022-08-01T19:28:27.650Z,2.67
2022-08-01T19:30:57.172Z,3.92
2022-08-01T19:33:25.898Z,3.05
2022-08-01T19:35:55.660Z,2.67
2022-08-01T19:38:27.567Z,5.03
2022-08-01T19:40:56.657Z,2.45
2022-08-01T19:43:26.635Z,2.50
2022-08-01T19:45:56.692Z,1.65
2022-08-01T19:48:24.910Z,2.97
2022-08-01T19:50:54.301Z,4.88
2022-08-01T19:53:25.359Z,3.28
2022-08-01T19:55:54.316Z,2.00
2022-08-01T19:58:27.348Z,2.10
2022-08-01T20:00:56.526Z,3.30
2022-08-01T20:03:25.044Z,1.80
2022-08-01T20:05:53.435Z,3.08
2022-08-01T20:08:23.011Z,2.63
2022-08-01T20:10:52.647Z,1.98
2022-08-01T20:13:21.638Z,1.80
2022-08-01T20:15:51.009Z,2.22
2022-08-01T20:18:19.802Z,4.43
2022-08-01T20:20:51.969Z,3.60
2022-08-01T20:23:23.928Z,3.17
2022-08-01T20:25:59.174Z,2.20
2022-08-01T20:28:29.746Z,2.72
2022-08-01T20:31:04.993Z,2.15
2022-08-01T20:33:36.364Z,2.38
2022-08-01T20:36:12.150Z,5.28
2022-08-01T20:38:56.514Z,3.55
2022-08-01T20:41:28.200Z,4.53
2022-08-01T20:44:02.659Z,4.88
2022-08-01T20:46:31.600Z,3.67
2022-08-01T20:49:06.182Z,4.90
2022-08-01T20:51:42.052Z,5.18
2022-08-01T20:54:10.785Z,3.15
2022-08-01T20:57:30.797Z,3.47
2022-08-01T21:00:03.277Z,5.30
2022-08-01T21:02:42.572Z,4.68
2022-08-01T21:05:16.539Z,3.78
2022-08-01T21:07:51.243Z,3.60
2022-08-01T21:10:26.530Z,2.88
2022-08-01T21:13:02.424Z,6.72
2022-08-01T21:15:33.169Z,2.60
2022-08-01T21:18:04.563Z,3.42
2022-08-01T21:20:34.725Z,2.92
2022-08-01T21:23:21.851Z,2.90
2022-08-01T21:25:50.337Z,3.85
2022-08-01T21:28:24.382Z,3.10
2022-08-01T21:31:10.661Z,3.65
2022-08-01T21:34:00.773Z,2.60
2022-08-01T21:36:31.525Z,1.45
2022-08-01T21:39:03.278Z,3.22
2022-08-01T21:42:05.417Z,4.25
2022-08-01T21:44:28.993Z,2.72
2022-08-01T21:46:59.784Z,3.75
2022-08-01T21:49:28.422Z,5.93
2022-08-01T21:52:03.911Z,4.60
2022-08-01T21:54:42.790Z,2.83
2022-08-01T21:57:19.013Z,3.38
2022-08-01T22:00:04.534Z,3.88
2022-08-01T22:02:39.191Z,1.40
2022-08-01T22:05:10.651Z,2.47
2022-08-01T22:07:48.366Z,3.40
2022-08-01T22:10:21.202Z,3.80
2022-08-01T22:12:50.276Z,3.35
2022-08-01T22:15:21.713Z,1.80
2022-08-01T22:18:12.098Z,3.75
2022-08-01T22:20:45.698Z,5.35
2022-08-01T22:23:15.247Z,2.25
2022-08-01T22:25:45.350Z,3.10
2022-08-01T22:28:17.557Z,3.15
2022-08-01T22:30:52.369Z,2.05
2022-08-01T22:33:40.964Z,1.52
2022-08-01T22:36:09.437Z,3.88
2022-08-01T22:38:38.692Z,1.77
2022-08-01T22:41:13.098Z,3.35
2022-08-01T22:44:02.049Z,2.90
2022-08-01T22:46:42.744Z,2.15
2022-08-01T22:49:22.554Z,2.47
2022-08-01T22:51:59.638Z,2.75
2022-08-01T22:54:57.532Z,6.25
2022-08-01T22:57:33.039Z,3.90
2022-08-01T23:00:04.262Z,3.58
2022-08-01T23:02:48.441Z,3.50
2022-08-01T23:05:23.214Z,1.95
2022-08-01T23:07:57.359Z,2.33
2022-08-01T23:10:46.846Z,2.13
2022-08-01T23:13:16.104Z,2.83
2022-08-01T23:15:52.357Z,5.00
2022-08-01T23:18:36.210Z,2.70
2022-08-01T23:21:14.974Z,3.00
2022-08-01T23:23:46.906Z,2.08
2022-08-01T23:26:18.460Z,5.03
2022-08-01T23:28:48.420Z,4.60
2022-08-01T23:31:18.422Z,2.92
2022-08-01T23:33:53.307Z,7.43
2022-08-01T23:36:25.519Z,3.42
2022-08-01T23:38:54.263Z,4.28
2022-08-01T23:41:24.007Z,4.13
2022-08-01T23:44:12.520Z,2.80
2022-08-01T23:46:47.303Z,4.53
2022-08-01T23:49:17.383Z,4.13
2022-08-01T23:51:47.156Z,4.65
2022-08-01T23:54:15.573Z,4.47
2022-08-01T23:56:45.802Z,5.95
2022-08-01T23:59:14.744Z,2.72
